sensor_id;sensor_type;location;lat;lon;timestamp;temperature;humidity
11736;DHT22;5924;51.398;7.088;2023-06-01T00:02:06;13.40;99.90
11736;DHT22;5924;51.398;7.088;2023-06-01T00:04:32;13.30;99.90
11736;DHT22;5924;51.398;7.088;2023-06-01T00:06:57;15.50;99.90
11736;DHT22;5924;51.398;7.088;2023-06-01T00:09:52;14.60;99.90
11736;DHT22;5924;51.398;7.088;2023-06-01T00:12:18;13.20;99.90
11736;DHT22;5924;51.398;7.088;2023-06-01T00:14:53;13.20;99.90
11736;DHT22;5924;51.398;7.088;2023-06-01T00:17:18;13.20;99.90
11736;DHT22;5924;51.398;7.088;2023-06-01T00:19:45;13.10;99.90
11736;DHT22;5924;51.398;7.088;2023-06-01T00:22:11;13.10;99.90
11736;DHT22;5924;51.398;7.088;2023-06-01T00:24:37;13.00;99.90
11736;DHT22;5924;51.398;7.088;2023-06-01T00:27:26;13.00;99.90
11736;DHT22;5924;51.398;7.088;2023-06-01T00:29:54;13.20;99.90
11736;DHT22;5924;51.398;7.088;2023-06-01T00:32:20;12.90;99.90
11736;DHT22;5924;51.398;7.088;2023-06-01T00:34:46;12.90;99.90
11736;DHT22;5924;51.398;7.088;2023-06-01T00:37:14;12.80;99.90
11736;DHT22;5924;51.398;7.088;2023-06-01T00:39:47;12.80;99.90
11736;DHT22;5924;51.398;7.088;2023-06-01T00:42:13;12.80;99.90
11736;DHT22;5924;51.398;7.088;2023-06-01T00:44:39;11.60;99.90
11736;DHT22;5924;51.398;7.088;2023-06-01T00:47:05;12.80;99.90
11736;DHT22;5924;51.398;7.088;2023-06-01T00:49:31;12.80;99.90
11736;DHT22;5924;51.398;7.088;2023-06-01T00:52:03;14.50;99.90
11736;DHT22;5924;51.398;7.088;2023-06-01T00:54:35;12.70;99.90
11736;DHT22;5924;51.398;7.088;2023-06-01T00:57:09;12.60;99.90
11736;DHT22;5924;51.398;7.088;2023-06-01T00:59:36;12.50;99.90
11736;DHT22;5924;51.398;7.088;2023-06-01T01:02:05;12.50;99.90
11736;DHT22;5924;51.398;7.088;2023-06-01T01:04:31;12.70;99.90
11736;DHT22;5924;51.398;7.088;2023-06-01T01:07:19;12.40;99.90
11736;DHT22;5924;51.398;7.088;2023-06-01T01:09:56;11.20;99.90
11736;DHT22;5924;51.398;7.088;2023-06-01T01:18:45;12.30;99.90
11736;DHT22;5924;51.398;7.088;2023-06-01T01:21:13;12.30;99.90
11736;DHT22;5924;51.398;7.088;2023-06-01T01:24:15;12.20;99.90
11736;DHT22;5924;51.398;7.088;2023-06-01T01:27:10;12.20;99.90
11736;DHT22;5924;51.398;7.088;2023-06-01T01:29:46;11.10;99.90
11736;DHT22;5924;51.398;7.088;2023-06-01T01:32:12;12.10;99.90
11736;DHT22;5924;51.398;7.088;2023-06-01T01:34:40;12.10;99.90
11736;DHT22;5924;51.398;7.088;2023-06-01T01:37:14;12.10;99.90
11736;DHT22;5924;51.398;7.088;2023-06-01T01:39:40;10.70;99.90
11736;DHT22;5924;51.398;7.088;2023-06-01T01:42:06;11.90;99.90
11736;DHT22;5924;51.398;7.088;2023-06-01T01:44:41;11.90;99.90
11736;DHT22;5924;51.398;7.088;2023-06-01T01:47:15;14.60;99.90
11736;DHT22;5924;51.398;7.088;2023-06-01T01:49:46;11.80;99.90
11736;DHT22;5924;51.398;7.088;2023-06-01T01:55:24;13.40;99.90
11736;DHT22;5924;51.398;7.088;2023-06-01T01:58:09;11.60;99.90
11736;DHT22;5924;51.398;7.088;2023-06-01T02:00:37;11.60;99.90
11736;DHT22;5924;51.398;7.088;2023-06-01T02:03:16;11.50;99.90
11736;DHT22;5924;51.398;7.088;2023-06-01T02:05:43;11.50;99.90
11736;DHT22;5924;51.398;7.088;2023-06-01T02:08:09;11.40;99.90
11736;DHT22;5924;51.398;7.088;2023-06-01T02:10:37;10.20;99.90
11736;DHT22;5924;51.398;7.088;2023-06-01T02:13:03;11.30;99.90
11736;DHT22;5924;51.398;7.088;2023-06-01T02:15:29;11.30;99.90
11736;DHT22;5924;51.398;7.088;2023-06-01T02:18:00;11.20;99.90
11736;DHT22;5924;51.398;7.088;2023-06-01T02:20:27;10.70;99.90
11736;DHT22;5924;51.398;7.088;2023-06-01T02:22:53;11.10;99.90
11736;DHT22;5924;51.398;7.088;2023-06-01T02:25:19;11.10;99.90
11736;DHT22;5924;51.398;7.088;2023-06-01T02:27:45;11.10;99.90
11736;DHT22;5924;51.398;7.088;2023-06-01T02:30:11;11.00;99.90
11736;DHT22;5924;51.398;7.088;2023-06-01T02:32:37;11.00;99.90
11736;DHT22;5924;51.398;7.088;2023-06-01T02:35:06;10.90;99.90
11736;DHT22;5924;51.398;7.088;2023-06-01T02:37:41;10.90;99.90
11736;DHT22;5924;51.398;7.088;2023-06-01T02:40:07;11.80;99.90
11736;DHT22;5924;51.398;7.088;2023-06-01T02:42:39;10.80;99.90
11736;DHT22;5924;51.398;7.088;2023-06-01T02:45:07;10.80;99.90
11736;DHT22;5924;51.398;7.088;2023-06-01T02:47:35;10.70;99.90
11736;DHT22;5924;51.398;7.088;2023-06-01T02:50:01;10.70;99.90
11736;DHT22;5924;51.398;7.088;2023-06-01T02:52:27;10.70;99.90
11736;DHT22;5924;51.398;7.088;2023-06-01T02:58:00;10.80;99.90
11736;DHT22;5924;51.398;7.088;2023-06-01T03:00:29;8.80;99.90
11736;DHT22;5924;51.398;7.088;2023-06-01T03:02:57;11.40;99.90
11736;DHT22;5924;51.398;7.088;2023-06-01T03:05:23;10.70;99.90
11736;DHT22;5924;51.398;7.088;2023-06-01T03:08:08;10.80;99.90
11736;DHT22;5924;51.398;7.088;2023-06-01T03:10:34;12.40;99.90
11736;DHT22;5924;51.398;7.088;2023-06-01T03:13:00;10.80;99.90
11736;DHT22;5924;51.398;7.088;2023-06-01T03:15:25;11.00;99.90
11736;DHT22;5924;51.398;7.088;2023-06-01T03:17:53;11.00;99.90
11736;DHT22;5924;51.398;7.088;2023-06-01T03:20:18;11.00;99.90
11736;DHT22;5924;51.398;7.088;2023-06-01T03:22:47;11.00;99.90
11736;DHT22;5924;51.398;7.088;2023-06-01T03:25:16;11.00;99.90
11736;DHT22;5924;51.398;7.088;2023-06-01T03:27:42;11.00;99.90
11736;DHT22;5924;51.398;7.088;2023-06-01T03:30:19;11.00;99.90
11736;DHT22;5924;51.398;7.088;2023-06-01T03:32:45;9.30;99.90
11736;DHT22;5924;51.398;7.088;2023-06-01T03:35:11;11.00;99.90
11736;DHT22;5924;51.398;7.088;2023-06-01T03:37:39;9.00;99.90
11736;DHT22;5924;51.398;7.088;2023-06-01T03:40:06;10.80;99.90
11736;DHT22;5924;51.398;7.088;2023-06-01T03:42:43;10.80;99.90
11736;DHT22;5924;51.398;7.088;2023-06-01T03:45:10;10.70;99.90
11736;DHT22;5924;51.398;7.088;2023-06-01T03:47:36;10.70;99.90
11736;DHT22;5924;51.398;7.088;2023-06-01T03:50:03;10.60;99.90
11736;DHT22;5924;51.398;7.088;2023-06-01T03:52:31;10.60;99.90
11736;DHT22;5924;51.398;7.088;2023-06-01T03:55:04;12.40;99.90
11736;DHT22;5924;51.398;7.088;2023-06-01T03:57:34;10.60;99.90
11736;DHT22;5924;51.398;7.088;2023-06-01T04:00:01;10.50;99.90
11736;DHT22;5924;51.398;7.088;2023-06-01T04:02:27;10.50;99.90
11736;DHT22;5924;51.398;7.088;2023-06-01T04:04:54;10.60;99.90
11736;DHT22;5924;51.398;7.088;2023-06-01T04:07:21;10.50;99.90
11736;DHT22;5924;51.398;7.088;2023-06-01T04:09:48;11.70;99.90
11736;DHT22;5924;51.398;7.088;2023-06-01T04:12:14;10.50;99.90
11736;DHT22;5924;51.398;7.088;2023-06-01T04:14:41;12.10;99.90
11736;DHT22;5924;51.398;7.088;2023-06-01T04:17:07;10.40;99.90
11736;DHT22;5924;51.398;7.088;2023-06-01T04:19:49;10.40;99.90
11736;DHT22;5924;51.398;7.088;2023-06-01T04:22:15;10.40;99.90
11736;DHT22;5924;51.398;7.088;2023-06-01T04:24:41;10.40;99.90
11736;DHT22;5924;51.398;7.088;2023-06-01T04:27:06;10.40;99.90
11736;DHT22;5924;51.398;7.088;2023-06-01T04:29:33;10.40;99.90
11736;DHT22;5924;51.398;7.088;2023-06-01T04:31:59;10.50;99.90
11736;DHT22;5924;51.398;7.088;2023-06-01T04:34:25;10.80;99.90
11736;DHT22;5924;51.398;7.088;2023-06-01T04:36:50;10.40;99.90
11736;DHT22;5924;51.398;7.088;2023-06-01T04:39:17;10.40;99.90
11736;DHT22;5924;51.398;7.088;2023-06-01T04:41:45;10.40;99.90
11736;DHT22;5924;51.398;7.088;2023-06-01T04:44:12;10.30;99.90
11736;DHT22;5924;51.398;7.088;2023-06-01T04:46:38;10.30;99.90
11736;DHT22;5924;51.398;7.088;2023-06-01T04:49:05;10.30;99.90
11736;DHT22;5924;51.398;7.088;2023-06-01T04:51:31;10.30;99.90
11736;DHT22;5924;51.398;7.088;2023-06-01T04:53:56;10.30;99.90
11736;DHT22;5924;51.398;7.088;2023-06-01T04:56:28;10.40;99.90
11736;DHT22;5924;51.398;7.088;2023-06-01T04:58:57;10.40;99.90
11736;DHT22;5924;51.398;7.088;2023-06-01T05:01:23;10.40;99.90
11736;DHT22;5924;51.398;7.088;2023-06-01T05:03:51;10.50;99.90
11736;DHT22;5924;51.398;7.088;2023-06-01T05:06:19;10.50;99.90
11736;DHT22;5924;51.398;7.088;2023-06-01T05:08:48;10.50;99.90
11736;DHT22;5924;51.398;7.088;2023-06-01T05:11:14;8.90;99.90
11736;DHT22;5924;51.398;7.088;2023-06-01T05:13:41;10.50;99.90
11736;DHT22;5924;51.398;7.088;2023-06-01T05:16:07;10.50;99.90
11736;DHT22;5924;51.398;7.088;2023-06-01T05:18:35;8.30;99.90
11736;DHT22;5924;51.398;7.088;2023-06-01T05:21:01;10.50;99.90
11736;DHT22;5924;51.398;7.088;2023-06-01T05:23:49;9.60;99.90
11736;DHT22;5924;51.398;7.088;2023-06-01T05:26:14;10.50;99.90
11736;DHT22;5924;51.398;7.088;2023-06-01T05:28:40;10.60;99.90
11736;DHT22;5924;51.398;7.088;2023-06-01T05:31:06;10.50;99.90
11736;DHT22;5924;51.398;7.088;2023-06-01T05:33:31;10.60;99.90
11736;DHT22;5924;51.398;7.088;2023-06-01T05:35:57;10.60;99.90
11736;DHT22;5924;51.398;7.088;2023-06-01T05:38:23;10.60;99.90
11736;DHT22;5924;51.398;7.088;2023-06-01T05:40:48;10.60;99.90
11736;DHT22;5924;51.398;7.088;2023-06-01T05:43:15;10.60;99.90
11736;DHT22;5924;51.398;7.088;2023-06-01T05:45:41;10.70;99.90
11736;DHT22;5924;51.398;7.088;2023-06-01T05:48:13;10.80;99.90
11736;DHT22;5924;51.398;7.088;2023-06-01T05:50:40;10.90;99.90
11736;DHT22;5924;51.398;7.088;2023-06-01T05:53:06;10.90;99.90
11736;DHT22;5924;51.398;7.088;2023-06-01T05:55:47;10.80;99.90
11736;DHT22;5924;51.398;7.088;2023-06-01T05:58:12;10.70;99.90
11736;DHT22;5924;51.398;7.088;2023-06-01T06:00:38;10.70;99.90
11736;DHT22;5924;51.398;7.088;2023-06-01T06:03:04;10.60;99.90
11736;DHT22;5924;51.398;7.088;2023-06-01T06:05:29;10.60;99.90
11736;DHT22;5924;51.398;7.088;2023-06-01T06:07:55;10.60;99.90
11736;DHT22;5924;51.398;7.088;2023-06-01T06:10:21;11.40;99.90
11736;DHT22;5924;51.398;7.088;2023-06-01T06:12:46;12.20;99.90
11736;DHT22;5924;51.398;7.088;2023-06-01T06:15:12;10.60;99.90
11736;DHT22;5924;51.398;7.088;2023-06-01T06:17:38;10.60;99.90
11736;DHT22;5924;51.398;7.088;2023-06-01T06:20:05;10.50;99.90
11736;DHT22;5924;51.398;7.088;2023-06-01T06:22:34;10.70;99.90
11736;DHT22;5924;51.398;7.088;2023-06-01T06:25:00;10.80;99.90
11736;DHT22;5924;51.398;7.088;2023-06-01T06:27:26;10.90;99.90
11736;DHT22;5924;51.398;7.088;2023-06-01T06:29:52;11.00;99.90
11736;DHT22;5924;51.398;7.088;2023-06-01T06:32:17;11.10;99.90
11736;DHT22;5924;51.398;7.088;2023-06-01T06:34:45;11.30;99.90
11736;DHT22;5924;51.398;7.088;2023-06-01T06:37:11;11.40;99.90
11736;DHT22;5924;51.398;7.088;2023-06-01T06:39:37;13.90;99.90
11736;DHT22;5924;51.398;7.088;2023-06-01T06:42:04;11.50;99.90
11736;DHT22;5924;51.398;7.088;2023-06-01T06:44:30;14.00;99.90
11736;DHT22;5924;51.398;7.088;2023-06-01T06:46:59;11.80;99.90
11736;DHT22;5924;51.398;7.088;2023-06-01T06:49:26;11.90;99.90
11736;DHT22;5924;51.398;7.088;2023-06-01T06:51:51;12.10;99.90
11736;DHT22;5924;51.398;7.088;2023-06-01T06:54:20;12.20;99.90
11736;DHT22;5924;51.398;7.088;2023-06-01T06:56:47;12.30;99.90
11736;DHT22;5924;51.398;7.088;2023-06-01T06:59:12;12.50;99.90
11736;DHT22;5924;51.398;7.088;2023-06-01T07:01:40;12.70;99.90
11736;DHT22;5924;51.398;7.088;2023-06-01T07:04:07;12.90;99.90
11736;DHT22;5924;51.398;7.088;2023-06-01T07:06:32;11.80;99.90
11736;DHT22;5924;51.398;7.088;2023-06-01T07:08:59;13.10;99.90
11736;DHT22;5924;51.398;7.088;2023-06-01T07:11:25;13.00;99.90
11736;DHT22;5924;51.398;7.088;2023-06-01T07:13:53;12.80;99.90
11736;DHT22;5924;51.398;7.088;2023-06-01T07:16:19;12.80;99.90
11736;DHT22;5924;51.398;7.088;2023-06-01T07:18:44;12.70;99.90
11736;DHT22;5924;51.398;7.088;2023-06-01T07:21:18;12.60;99.90
11736;DHT22;5924;51.398;7.088;2023-06-01T07:23:45;13.90;99.90
11736;DHT22;5924;51.398;7.088;2023-06-01T07:26:11;12.70;99.90
11736;DHT22;5924;51.398;7.088;2023-06-01T07:28:37;13.10;99.90
11736;DHT22;5924;51.398;7.088;2023-06-01T07:31:04;12.70;99.90
11736;DHT22;5924;51.398;7.088;2023-06-01T07:33:30;13.90;99.90
11736;DHT22;5924;51.398;7.088;2023-06-01T07:35:56;12.80;99.90
11736;DHT22;5924;51.398;7.088;2023-06-01T07:38:23;13.00;99.90
11736;DHT22;5924;51.398;7.088;2023-06-01T07:40:51;14.70;99.90
11736;DHT22;5924;51.398;7.088;2023-06-01T07:43:17;12.90;99.90
11736;DHT22;5924;51.398;7.088;2023-06-01T07:45:43;12.90;99.90
11736;DHT22;5924;51.398;7.088;2023-06-01T07:48:08;13.10;99.90
11736;DHT22;5924;51.398;7.088;2023-06-01T07:50:34;13.10;99.90
11736;DHT22;5924;51.398;7.088;2023-06-01T07:53:00;13.10;99.90
11736;DHT22;5924;51.398;7.088;2023-06-01T07:55:25;13.10;99.90
11736;DHT22;5924;51.398;7.088;2023-06-01T07:57:52;13.00;99.90
11736;DHT22;5924;51.398;7.088;2023-06-01T08:00:18;13.00;99.90
11736;DHT22;5924;51.398;7.088;2023-06-01T08:02:44;13.00;99.90
11736;DHT22;5924;51.398;7.088;2023-06-01T08:05:10;13.00;99.90
11736;DHT22;5924;51.398;7.088;2023-06-01T08:07:40;13.00;99.90
11736;DHT22;5924;51.398;7.088;2023-06-01T08:10:08;14.00;99.90
11736;DHT22;5924;51.398;7.088;2023-06-01T08:12:34;13.20;99.90
11736;DHT22;5924;51.398;7.088;2023-06-01T08:15:03;13.50;99.90
11736;DHT22;5924;51.398;7.088;2023-06-01T08:17:31;13.60;99.90
11736;DHT22;5924;51.398;7.088;2023-06-01T08:19:57;13.80;99.90
11736;DHT22;5924;51.398;7.088;2023-06-01T08:22:23;12.40;99.90
11736;DHT22;5924;51.398;7.088;2023-06-01T08:24:55;14.10;99.90
11736;DHT22;5924;51.398;7.088;2023-06-01T08:27:25;13.90;99.90
11736;DHT22;5924;51.398;7.088;2023-06-01T08:30:11;12.30;99.90
11736;DHT22;5924;51.398;7.088;2023-06-01T08:32:43;13.10;99.90
11736;DHT22;5924;51.398;7.088;2023-06-01T08:35:11;16.30;99.90
11736;DHT22;5924;51.398;7.088;2023-06-01T08:37:37;14.10;99.90
11736;DHT22;5924;51.398;7.088;2023-06-01T08:40:03;14.10;99.90
11736;DHT22;5924;51.398;7.088;2023-06-01T08:42:44;14.20;99.90
11736;DHT22;5924;51.398;7.088;2023-06-01T08:45:22;14.30;99.90
11736;DHT22;5924;51.398;7.088;2023-06-01T08:47:55;14.30;99.90
11736;DHT22;5924;51.398;7.088;2023-06-01T08:50:22;14.90;99.90
11736;DHT22;5924;51.398;7.088;2023-06-01T08:52:49;14.40;99.90
11736;DHT22;5924;51.398;7.088;2023-06-01T08:55:18;14.70;99.90
11736;DHT22;5924;51.398;7.088;2023-06-01T08:57:44;14.70;99.90
11736;DHT22;5924;51.398;7.088;2023-06-01T09:00:12;15.00;99.90
11736;DHT22;5924;51.398;7.088;2023-06-01T09:02:51;15.10;99.90
11736;DHT22;5924;51.398;7.088;2023-06-01T09:05:16;15.20;99.90
11736;DHT22;5924;51.398;7.088;2023-06-01T09:07:43;15.40;99.90
11736;DHT22;5924;51.398;7.088;2023-06-01T09:10:12;15.60;99.90
11736;DHT22;5924;51.398;7.088;2023-06-01T09:12:38;15.60;99.90
11736;DHT22;5924;51.398;7.088;2023-06-01T09:15:28;15.70;99.90
11736;DHT22;5924;51.398;7.088;2023-06-01T09:18:09;15.80;99.90
11736;DHT22;5924;51.398;7.088;2023-06-01T09:20:35;14.60;99.90
11736;DHT22;5924;51.398;7.088;2023-06-01T09:23:06;16.00;99.90
11736;DHT22;5924;51.398;7.088;2023-06-01T09:25:37;15.80;99.90
11736;DHT22;5924;51.398;7.088;2023-06-01T09:28:03;15.90;99.90
11736;DHT22;5924;51.398;7.088;2023-06-01T09:30:40;16.20;99.90
11736;DHT22;5924;51.398;7.088;2023-06-01T09:33:10;16.40;99.90
11736;DHT22;5924;51.398;7.088;2023-06-01T09:35:58;16.30;99.90
11736;DHT22;5924;51.398;7.088;2023-06-01T09:38:33;16.30;99.90
11736;DHT22;5924;51.398;7.088;2023-06-01T09:41:02;16.40;99.90
11736;DHT22;5924;51.398;7.088;2023-06-01T09:43:33;16.50;99.90
11736;DHT22;5924;51.398;7.088;2023-06-01T09:46:16;16.60;99.90
11736;DHT22;5924;51.398;7.088;2023-06-01T09:48:46;16.80;99.90
11736;DHT22;5924;51.398;7.088;2023-06-01T09:51:23;16.90;99.90
11736;DHT22;5924;51.398;7.088;2023-06-01T09:54:03;17.20;99.90
11736;DHT22;5924;51.398;7.088;2023-06-01T09:56:44;17.10;99.90
11736;DHT22;5924;51.398;7.088;2023-06-01T09:59:10;17.30;99.90
11736;DHT22;5924;51.398;7.088;2023-06-01T10:01:36;17.50;99.90
11736;DHT22;5924;51.398;7.088;2023-06-01T10:04:04;17.50;99.90
11736;DHT22;5924;51.398;7.088;2023-06-01T10:06:39;17.60;99.90
11736;DHT22;5924;51.398;7.088;2023-06-01T10:09:10;17.60;99.90
11736;DHT22;5924;51.398;7.088;2023-06-01T10:11:43;17.50;99.90
11736;DHT22;5924;51.398;7.088;2023-06-01T10:14:10;19.50;99.90
11736;DHT22;5924;51.398;7.088;2023-06-01T10:16:36;17.70;99.90
11736;DHT22;5924;51.398;7.088;2023-06-01T10:19:08;17.70;99.90
11736;DHT22;5924;51.398;7.088;2023-06-01T10:21:44;17.60;99.90
11736;DHT22;5924;51.398;7.088;2023-06-01T10:24:11;17.80;99.90
11736;DHT22;5924;51.398;7.088;2023-06-01T10:27:01;17.80;99.90
11736;DHT22;5924;51.398;7.088;2023-06-01T10:29:30;17.90;99.90
11736;DHT22;5924;51.398;7.088;2023-06-01T10:31:56;17.90;99.90
11736;DHT22;5924;51.398;7.088;2023-06-01T10:34:42;18.00;99.90
11736;DHT22;5924;51.398;7.088;2023-06-01T10:37:11;18.10;99.90
11736;DHT22;5924;51.398;7.088;2023-06-01T10:39:37;18.20;99.90
11736;DHT22;5924;51.398;7.088;2023-06-01T10:52:31;18.60;99.90
11736;DHT22;5924;51.398;7.088;2023-06-01T10:57:43;18.80;99.90
11736;DHT22;5924;51.398;7.088;2023-06-01T11:00:25;18.90;99.90
11736;DHT22;5924;51.398;7.088;2023-06-01T11:03:00;18.80;99.90
11736;DHT22;5924;51.398;7.088;2023-06-01T11:13:31;19.00;99.90
11736;DHT22;5924;51.398;7.088;2023-06-01T11:19:02;19.40;99.90
11736;DHT22;5924;51.398;7.088;2023-06-01T11:21:32;19.50;99.90
11736;DHT22;5924;51.398;7.088;2023-06-01T11:24:16;19.70;99.90
11736;DHT22;5924;51.398;7.088;2023-06-01T11:26:46;19.80;99.90
11736;DHT22;5924;51.398;7.088;2023-06-01T11:29:23;19.90;99.90
11736;DHT22;5924;51.398;7.088;2023-06-01T11:31:50;20.10;99.90
11736;DHT22;5924;51.398;7.088;2023-06-01T11:34:18;20.10;99.90
11736;DHT22;5924;51.398;7.088;2023-06-01T11:36:49;20.10;99.90
11736;DHT22;5924;51.398;7.088;2023-06-01T11:39:25;20.00;99.90
11736;DHT22;5924;51.398;7.088;2023-06-01T11:42:33;20.40;99.90
11736;DHT22;5924;51.398;7.088;2023-06-01T11:44:58;20.60;99.90
11736;DHT22;5924;51.398;7.088;2023-06-01T11:47:28;20.50;99.90
11736;DHT22;5924;51.398;7.088;2023-06-01T11:49:55;20.50;99.90
11736;DHT22;5924;51.398;7.088;2023-06-01T11:52:24;20.70;99.90
11736;DHT22;5924;51.398;7.088;2023-06-01T11:54:52;21.10;99.90
11736;DHT22;5924;51.398;7.088;2023-06-01T11:57:19;21.10;99.90
11736;DHT22;5924;51.398;7.088;2023-06-01T11:59:49;21.00;99.90
11736;DHT22;5924;51.398;7.088;2023-06-01T12:02:17;21.20;99.90
11736;DHT22;5924;51.398;7.088;2023-06-01T12:05:11;21.30;99.90
11736;DHT22;5924;51.398;7.088;2023-06-01T12:07:45;21.30;99.90
11736;DHT22;5924;51.398;7.088;2023-06-01T12:10:18;21.20;99.90
11736;DHT22;5924;51.398;7.088;2023-06-01T12:12:45;21.40;99.90
11736;DHT22;5924;51.398;7.088;2023-06-01T12:15:15;21.80;99.90
11736;DHT22;5924;51.398;7.088;2023-06-01T12:17:47;22.20;99.90
11736;DHT22;5924;51.398;7.088;2023-06-01T12:20:46;22.30;99.90
11736;DHT22;5924;51.398;7.088;2023-06-01T12:23:18;22.30;99.90
11736;DHT22;5924;51.398;7.088;2023-06-01T12:25:53;22.50;99.90
11736;DHT22;5924;51.398;7.088;2023-06-01T12:28:26;22.80;99.90
11736;DHT22;5924;51.398;7.088;2023-06-01T12:31:11;22.80;99.90
11736;DHT22;5924;51.398;7.088;2023-06-01T12:33:41;23.20;99.90
11736;DHT22;5924;51.398;7.088;2023-06-01T12:36:27;23.20;99.90
11736;DHT22;5924;51.398;7.088;2023-06-01T12:38:54;23.40;99.90
11736;DHT22;5924;51.398;7.088;2023-06-01T12:41:24;23.40;99.90
11736;DHT22;5924;51.398;7.088;2023-06-01T12:43:50;23.60;99.90
11736;DHT22;5924;51.398;7.088;2023-06-01T12:46:39;23.90;99.90
11736;DHT22;5924;51.398;7.088;2023-06-01T12:49:14;24.00;99.90
11736;DHT22;5924;51.398;7.088;2023-06-01T12:51:41;24.20;99.90
11736;DHT22;5924;51.398;7.088;2023-06-01T12:54:07;24.60;98.10
11736;DHT22;5924;51.398;7.088;2023-06-01T12:56:33;24.40;98.10
11736;DHT22;5924;51.398;7.088;2023-06-01T12:59:01;24.70;98.30
11736;DHT22;5924;51.398;7.088;2023-06-01T13:01:36;24.80;97.70
11736;DHT22;5924;51.398;7.088;2023-06-01T13:04:01;25.20;98.60
11736;DHT22;5924;51.398;7.088;2023-06-01T13:06:33;25.30;96.90
11736;DHT22;5924;51.398;7.088;2023-06-01T13:09:00;25.00;97.00
11736;DHT22;5924;51.398;7.088;2023-06-01T13:11:26;25.20;97.50
11736;DHT22;5924;51.398;7.088;2023-06-01T13:13:52;25.70;97.40
11736;DHT22;5924;51.398;7.088;2023-06-01T13:16:19;25.80;96.80
11736;DHT22;5924;51.398;7.088;2023-06-01T13:18:45;26.10;94.50
11736;DHT22;5924;51.398;7.088;2023-06-01T13:21:13;25.70;93.70
11736;DHT22;5924;51.398;7.088;2023-06-01T13:23:38;25.50;93.60
11736;DHT22;5924;51.398;7.088;2023-06-01T13:26:05;25.70;94.10
11736;DHT22;5924;51.398;7.088;2023-06-01T13:28:30;25.40;94.20
11736;DHT22;5924;51.398;7.088;2023-06-01T13:31:03;25.80;94.70
11736;DHT22;5924;51.398;7.088;2023-06-01T13:33:29;25.90;93.10
11736;DHT22;5924;51.398;7.088;2023-06-01T13:35:54;26.00;93.50
11736;DHT22;5924;51.398;7.088;2023-06-01T13:38:20;26.10;92.80
11736;DHT22;5924;51.398;7.088;2023-06-01T13:40:46;26.00;92.30
11736;DHT22;5924;51.398;7.088;2023-06-01T13:43:11;26.00;92.50
11736;DHT22;5924;51.398;7.088;2023-06-01T13:45:37;26.00;90.80
11736;DHT22;5924;51.398;7.088;2023-06-01T13:48:03;25.70;90.00
11736;DHT22;5924;51.398;7.088;2023-06-01T13:50:29;25.40;90.80
11736;DHT22;5924;51.398;7.088;2023-06-01T13:53:03;25.40;91.20
11736;DHT22;5924;51.398;7.088;2023-06-01T13:55:38;25.70;91.70
11736;DHT22;5924;51.398;7.088;2023-06-01T13:58:06;25.90;90.60
11736;DHT22;5924;51.398;7.088;2023-06-01T14:00:37;26.30;90.70
11736;DHT22;5924;51.398;7.088;2023-06-01T14:03:14;26.10;89.50
11736;DHT22;5924;51.398;7.088;2023-06-01T14:05:40;25.70;88.30
11736;DHT22;5924;51.398;7.088;2023-06-01T14:08:26;25.60;88.20
11736;DHT22;5924;51.398;7.088;2023-06-01T14:10:54;25.60;90.70
11736;DHT22;5924;51.398;7.088;2023-06-01T14:13:22;25.80;85.50
11736;DHT22;5924;51.398;7.088;2023-06-01T14:15:57;25.60;87.80
11736;DHT22;5924;51.398;7.088;2023-06-01T14:18:22;26.30;88.80
11736;DHT22;5924;51.398;7.088;2023-06-01T14:20:54;27.00;86.80
11736;DHT22;5924;51.398;7.088;2023-06-01T14:23:20;27.30;82.10
11736;DHT22;5924;51.398;7.088;2023-06-01T14:25:45;26.60;80.30
11736;DHT22;5924;51.398;7.088;2023-06-01T14:28:11;26.20;81.00
11736;DHT22;5924;51.398;7.088;2023-06-01T14:30:42;26.00;83.20
11736;DHT22;5924;51.398;7.088;2023-06-01T14:33:08;25.90;84.10
11736;DHT22;5924;51.398;7.088;2023-06-01T14:35:33;26.10;82.70
11736;DHT22;5924;51.398;7.088;2023-06-01T14:37:59;26.00;82.50
11736;DHT22;5924;51.398;7.088;2023-06-01T14:40:25;26.00;84.80
11736;DHT22;5924;51.398;7.088;2023-06-01T14:42:53;26.30;85.90
11736;DHT22;5924;51.398;7.088;2023-06-01T14:45:19;26.20;83.00
11736;DHT22;5924;51.398;7.088;2023-06-01T14:47:47;26.30;83.70
11736;DHT22;5924;51.398;7.088;2023-06-01T14:50:13;26.80;81.30
11736;DHT22;5924;51.398;7.088;2023-06-01T14:52:50;26.30;82.30
11736;DHT22;5924;51.398;7.088;2023-06-01T14:55:27;26.00;80.80
11736;DHT22;5924;51.398;7.088;2023-06-01T14:57:54;26.10;82.00
11736;DHT22;5924;51.398;7.088;2023-06-01T15:00:20;26.30;81.50
11736;DHT22;5924;51.398;7.088;2023-06-01T15:02:46;27.00;80.80
11736;DHT22;5924;51.398;7.088;2023-06-01T15:05:18;26.30;80.50
11736;DHT22;5924;51.398;7.088;2023-06-01T15:07:46;26.10;80.10
11736;DHT22;5924;51.398;7.088;2023-06-01T15:10:12;26.30;81.20
11736;DHT22;5924;51.398;7.088;2023-06-01T15:12:39;26.40;80.50
11736;DHT22;5924;51.398;7.088;2023-06-01T15:15:05;26.20;80.30
11736;DHT22;5924;51.398;7.088;2023-06-01T15:17:31;26.40;81.10
11736;DHT22;5924;51.398;7.088;2023-06-01T15:19:56;27.10;83.60
11736;DHT22;5924;51.398;7.088;2023-06-01T15:22:22;27.70;80.00
11736;DHT22;5924;51.398;7.088;2023-06-01T15:24:51;28.10;78.00
11736;DHT22;5924;51.398;7.088;2023-06-01T15:27:16;28.40;75.50
11736;DHT22;5924;51.398;7.088;2023-06-01T15:29:42;28.10;75.80
11736;DHT22;5924;51.398;7.088;2023-06-01T15:32:08;28.20;75.20
11736;DHT22;5924;51.398;7.088;2023-06-01T15:34:33;28.60;75.80
11736;DHT22;5924;51.398;7.088;2023-06-01T15:36:59;27.40;71.00
11736;DHT22;5924;51.398;7.088;2023-06-01T15:39:25;28.10;72.90
11736;DHT22;5924;51.398;7.088;2023-06-01T15:42:11;28.00;72.00
11736;DHT22;5924;51.398;7.088;2023-06-01T15:44:56;28.30;71.90
11736;DHT22;5924;51.398;7.088;2023-06-01T15:47:22;28.70;71.30
11736;DHT22;5924;51.398;7.088;2023-06-01T15:49:48;28.90;70.30
11736;DHT22;5924;51.398;7.088;2023-06-01T15:52:14;29.30;68.90
11736;DHT22;5924;51.398;7.088;2023-06-01T15:54:42;29.70;67.60
11736;DHT22;5924;51.398;7.088;2023-06-01T15:57:11;30.00;66.90
11736;DHT22;5924;51.398;7.088;2023-06-01T15:59:37;30.10;64.90
11736;DHT22;5924;51.398;7.088;2023-06-01T16:02:02;30.20;66.80
11736;DHT22;5924;51.398;7.088;2023-06-01T16:04:45;30.00;62.70
11736;DHT22;5924;51.398;7.088;2023-06-01T16:07:53;29.30;64.50
11736;DHT22;5924;51.398;7.088;2023-06-01T16:13:59;29.80;62.90
11736;DHT22;5924;51.398;7.088;2023-06-01T16:16:28;29.80;63.00
11736;DHT22;5924;51.398;7.088;2023-06-01T16:18:53;29.40;60.40
11736;DHT22;5924;51.398;7.088;2023-06-01T16:21:22;28.70;62.10
11736;DHT22;5924;51.398;7.088;2023-06-01T16:23:47;27.40;64.20
11736;DHT22;5924;51.398;7.088;2023-06-01T16:26:13;25.70;67.40
11736;DHT22;5924;51.398;7.088;2023-06-01T16:28:39;24.20;71.00
11736;DHT22;5924;51.398;7.088;2023-06-01T16:31:05;22.90;74.10
11736;DHT22;5924;51.398;7.088;2023-06-01T16:33:32;22.20;77.50
11736;DHT22;5924;51.398;7.088;2023-06-01T16:35:59;21.70;80.30
11736;DHT22;5924;51.398;7.088;2023-06-01T16:38:27;21.40;82.10
11736;DHT22;5924;51.398;7.088;2023-06-01T16:40:56;21.20;82.80
11736;DHT22;5924;51.398;7.088;2023-06-01T16:43:21;20.90;83.90